Terminal Aerodrome Forecast
Issued by NWS

Current Version | Previous Version | Graphics & Text | Print | Product List | Glossary Off
Versions: 1 2 3 4 5 6 7 8 9 10 11 12 13 14

000
FTUS42 KILM 202100 AAA
TAFCRE
TAF AMD
KCRE 202105Z 2021/2118 05008KT P6SM FEW010 BKN020 OVC035
     FM211000 02006KT 4SM BR SCT006 SCT015 BKN060
     FM211500 04008KT P6SM SCT040 BKN060=

USA.gov is the U.S. government's official web portal to all federal, state and local government web resources and services.